WetterOnline ( https://www.wetteronline.de )

Wetter aktuell Waldkirchen

Aktuelles Wetter: Carlsfeld (899m)

6-stündlich | Neueste Meldungen
Ortszeit Temperatur Wetter
Di, 11.08. 2:00 17.1° C bedeckt
Mo, 10.08. 20:00 19.1° C wolkig
Mo, 10.08. 14:00 17.4° C Regen
Mo, 10.08. 8:00 19.8° C -
Mo, 10.08. 2:00 20.9° C -
So, 09.08. 20:00 24.9° C -
So, 09.08. 14:00 26.6° C -
So, 09.08. 8:00 19.9° C -
Ortszeit Temperatur Wetter
Di, 11.08. 6:00 17.7° C bewölkt
Di, 11.08. 5:40 17.7° C bewölkt
Di, 11.08. 5:30 17.8° C bewölkt
Di, 11.08. 5:20 17.8° C bewölkt
Di, 11.08. 5:10 17.8° C bewölkt
Di, 11.08. 5:00 18.1° C bedeckt
Di, 11.08. 4:50 18.1° C bedeckt
Di, 11.08. 4:30 17.7° C bedeckt
Di, 11.08. 4:00 17.5° C bedeckt
Di, 11.08. 3:30 17.6° C bedeckt
Di, 11.08. 3:00 17.3° C bedeckt
Di, 11.08. 2:30 17.5° C bewölkt
Ortszeit Relative Feuchte Sichtweite
Di, 11.08. 2:00 74% 45 km
Mo, 10.08. 20:00 75% 40 km
Mo, 10.08. 14:00 92% 18 km
Mo, 10.08. 8:00 70% 35 km
Mo, 10.08. 2:00 50% 40 km
So, 09.08. 20:00 39% 45 km
So, 09.08. 14:00 35% 55 km
So, 09.08. 8:00 65% 40 km
Ortszeit Relative Feuchte Sichtweite
Di, 11.08. 6:00 68% 65 km
Di, 11.08. 5:40 68% -
Di, 11.08. 5:30 67% 60 km
Di, 11.08. 5:20 67% -
Di, 11.08. 5:10 67% -
Di, 11.08. 5:00 66% 55 km
Di, 11.08. 4:50 66% -
Di, 11.08. 4:30 67% 65 km
Di, 11.08. 4:00 68% 55 km
Di, 11.08. 3:30 68% 55 km
Di, 11.08. 3:00 72% 45 km
Di, 11.08. 2:30 71% 50 km
Ortszeit Niederschlagsmenge Niederschlagsart
Di, 11.08. 2:00 0.0 l/m2 in 6 Std. -
Mo, 10.08. 20:00 24 l/m2 in 12 Std. Regen
Mo, 10.08. 14:00 24 l/m2 in 6 Std. Regenschauer
Mo, 10.08. 8:00 0.0 l/m2 in 12 Std. -
Mo, 10.08. 2:00 0.0 l/m2 in 6 Std. -
So, 09.08. 20:00 0.0 l/m2 in 12 Std. -
So, 09.08. 14:00 0.0 l/m2 in 6 Std. -
So, 09.08. 8:00 0.0 l/m2 in 12 Std. -
Ortszeit Niederschlagsmenge Niederschlagsart
Di, 11.08. 6:00 0.1 l/m2 in 1 Std. Regen
Di, 11.08. 5:40 keine Meldung -
Di, 11.08. 5:30 0.1 l/m2 in 1 Std. Schneeregen
Di, 11.08. 5:20 keine Meldung -
Di, 11.08. 5:10 keine Meldung -
Di, 11.08. 5:00 0.0 l/m2 in 1 Std. -
Di, 11.08. 4:50 keine Meldung -
Di, 11.08. 4:30 0.0 l/m2 in 1 Std. -
Di, 11.08. 4:00 0.0 l/m2 in 1 Std. -
Di, 11.08. 3:30 0.0 l/m2 in 1 Std. -
Di, 11.08. 3:00 0.0 l/m2 in 1 Std. -
Di, 11.08. 2:30 0.0 l/m2 in 1 Std. -
Ortszeit Stärke Spitze Richtung
km/h Bft. km/h Grad Sektor
Di, 11.08. 2:00 13 3 24 150° SO
Mo, 10.08. 20:00 6 1 28 150° SO
Mo, 10.08. 14:00 4 1 36 120° SO
Mo, 10.08. 8:00 4 1 14 90° O
Mo, 10.08. 2:00 7 2 15 190° S
So, 09.08. 20:00 6 1 26 190° S
So, 09.08. 14:00 6 1 20 360° N
So, 09.08. 8:00 0 0 14 - -
Ortszeit Stärke Spitze Richtung
km/h Bft. km/h Grad Sektor
Di, 11.08. 6:00 6 1 11 140° SO
Di, 11.08. 5:40 6 1 - 170° S
Di, 11.08. 5:30 6 1 11 160° S
Di, 11.08. 5:20 6 1 - 160° S
Di, 11.08. 5:10 4 1 - 130° SO
Di, 11.08. 5:00 7 2 18 150° SO
Di, 11.08. 4:50 7 2 - 150° SO
Di, 11.08. 4:30 9 2 15 160° S
Di, 11.08. 4:00 7 2 22 140° SO
Di, 11.08. 3:30 9 2 22 150° SO
Di, 11.08. 3:00 9 2 24 140° SO
Di, 11.08. 2:30 13 3 24 160° S
Ortszeit Untergrenze Bedeckung Gattung
total tief tief mittel hoch
Di, 11.08. 2:00 3000 m 8/8 8/8 - - -
Mo, 10.08. 20:00 2700 m 7/8 2/8 - - -
Mo, 10.08. 14:00 840 m 8/8 8/8 - - -
Mo, 10.08. 8:00 - - - - - -
Mo, 10.08. 2:00 - - - - - -
So, 09.08. 20:00 - - - - - -
So, 09.08. 14:00 - - - - - -
So, 09.08. 8:00 - - - - - -
Ortszeit Bedeckungsgrad in Achtel und Wolkenuntergrenze
Di, 11.08. 6:00 7(2700m) 8(4200m)
Di, 11.08. 5:40 7(2700m) 8(4200m)
Di, 11.08. 5:30 7(2700m) 7(3600m) 8(4200m)
Di, 11.08. 5:20 7(2700m) 7(3600m) 8(4200m)
Di, 11.08. 5:10 7(2700m) 8(3900m)
Di, 11.08. 5:00 7(3000m) 8(3600m) 8(4500m)
Di, 11.08. 4:50 7(3000m) 8(3600m) 8(4500m)
Di, 11.08. 4:30 8(3000m) 8(3600m) 8(4200m)
Di, 11.08. 4:00 7(3000m) 8(4200m) 8(4200m)
Di, 11.08. 3:30 2(3000m) 8(3900m)
Di, 11.08. 3:00 7(3000m) 8(3900m)
Di, 11.08. 2:30 4(2700m) 8(3600m) 8(4200m)
Ortszeit Stationsdruck (hPa) Tendenz (hPa in 3 Std.)
Di, 11.08. 2:00 918 + 0,5
Mo, 10.08. 20:00 917 - 0,4
Mo, 10.08. 14:00 917 + 0,5
Mo, 10.08. 8:00 917 0,0
Mo, 10.08. 2:00 917 - 0,3
So, 09.08. 20:00 917 - 0,5
So, 09.08. 14:00 918 - 1,0
So, 09.08. 8:00 920 + 0,3
Ortszeit Stationsdruck (hPa) Tendenz (hPa in 3 Std.)
Di, 11.08. 6:00 917 - 0,1
Di, 11.08. 5:40 917 keine Meldung
Di, 11.08. 5:30 917 - 0,2
Di, 11.08. 5:20 917 keine Meldung
Di, 11.08. 5:10 917 keine Meldung
Di, 11.08. 5:00 917 - 0,3
Di, 11.08. 4:50 917 keine Meldung
Di, 11.08. 4:30 917 - 0,3
Di, 11.08. 4:00 917 0,0
Di, 11.08. 3:30 917 + 0,1
Di, 11.08. 3:00 918 0,0
Di, 11.08. 2:30 918 + 0,2
Ortszeit Schneehöhe (cm)
Di, 11.08. 2:00 -
Mo, 10.08. 20:00 -
Mo, 10.08. 14:00 -
Mo, 10.08. 8:00 -
Mo, 10.08. 2:00 -
So, 09.08. 20:00 -
So, 09.08. 14:00 -
So, 09.08. 8:00 -
Ortszeit Schneehöhe (cm)
Di, 11.08. 6:00 -
Di, 11.08. 5:40 -
Di, 11.08. 5:30 -
Di, 11.08. 5:20 -
Di, 11.08. 5:10 -
Di, 11.08. 5:00 -
Di, 11.08. 4:50 -
Di, 11.08. 4:30 -
Di, 11.08. 4:00 -
Di, 11.08. 3:30 -
Di, 11.08. 3:00 -
Di, 11.08. 2:30 -
Link zu dieser Seite / Seite empfehlen

Das Wetter in ...